Time;durP1;ratioP1;P1;durP2;ratioP2;P2;SDS_P1;SDS_P2;PMS_P1;PMS_P2;Temp;Humidity;BMP_temperature;BMP_pressure;BME280_temperature;BME280_humidity;BME280_pressure;Samples;Min_cycle;Max_cycle;Signal;HPM_P1;HPM_P2
2022/12/24 00:00:35;;;;;;;1.30;1.20;;;;;;;15.68;100.00;95746.94;5054891;28;20072;-45
2022/12/24 00:03:03;;;;;;;1.23;1.20;;;;;;;15.34;100.00;95723.75;5059799;28;20077;-48
2022/12/24 00:05:32;;;;;;;1.30;1.20;;;;;;;15.59;100.00;95756.88;5050748;28;20081;-53
2022/12/24 00:08:00;;;;;;;1.55;1.15;;;;;;;15.55;100.00;95757.44;5056085;28;20055;-44
2022/12/24 00:10:28;;;;;;;1.40;1.30;;;;;;;15.41;100.00;95769.78;5053282;28;20476;-48
2022/12/24 00:12:56;;;;;;;1.77;1.10;;;;;;;15.41;100.00;95759.97;5058950;28;20080;-45
2022/12/24 00:15:26;;;;;;;1.15;1.15;;;;;;;15.41;100.00;95761.81;5054093;28;20092;-42
2022/12/24 00:17:54;;;;;;;1.38;1.27;;;;;;;15.40;100.00;95757.53;5056376;28;20499;-45
2022/12/24 00:20:23;;;;;;;1.20;1.08;;;;;;;15.37;100.00;95764.03;5057403;28;20087;-47
2022/12/24 00:22:52;;;;;;;1.60;1.50;;;;;;;14.99;100.00;95750.22;5050700;28;20084;-50
2022/12/24 00:25:20;;;;;;;1.17;1.15;;;;;;;14.95;100.00;95760.38;5055210;28;20528;-47
2022/12/24 00:27:48;;;;;;;1.20;1.20;;;;;;;14.95;100.00;95768.34;5051002;28;20134;-45
2022/12/24 00:30:17;;;;;;;1.50;1.40;;;;;;;14.72;100.00;95765.84;5057850;28;20068;-41
2022/12/24 00:32:46;;;;;;;1.83;1.20;;;;;;;15.03;100.00;95775.38;5056099;28;20072;-42
2022/12/24 00:35:15;;;;;;;4.07;1.95;;;;;;;15.01;100.00;95773.94;5053287;28;20454;-52
2022/12/24 00:37:43;;;;;;;1.95;1.30;;;;;;;15.01;100.00;95768.63;5052839;28;20456;-47
2022/12/24 00:40:12;;;;;;;2.35;1.20;;;;;;;15.04;100.00;95770.91;5054385;28;20080;-45
2022/12/24 00:42:40;;;;;;;1.30;1.20;;;;;;;14.97;100.00;95776.16;5056807;28;20084;-44
2022/12/24 00:45:10;;;;;;;1.25;1.20;;;;;;;15.08;100.00;95769.50;5054182;28;20087;-42
2022/12/24 00:47:38;;;;;;;1.40;1.30;;;;;;;15.16;100.00;95790.63;5054330;28;20075;-46
2022/12/24 00:50:09;;;;;;;2.25;1.35;;;;;;;14.83;100.00;95785.81;5056080;28;20106;-43
2022/12/24 00:52:37;;;;;;;2.33;1.60;;;;;;;15.27;100.00;95792.75;5054522;28;20067;-52
2022/12/24 00:55:06;;;;;;;2.60;1.42;;;;;;;15.11;100.00;95796.50;5052951;28;20080;-48
2022/12/24 00:57:35;;;;;;;3.90;1.33;;;;;;;15.15;100.00;95791.63;5052481;28;20041;-44
2022/12/24 01:00:04;;;;;;;2.42;1.50;;;;;;;15.10;100.00;95804.66;5054244;28;20303;-44
2022/12/24 01:02:32;;;;;;;1.52;1.40;;;;;;;15.27;100.00;95802.56;5057673;28;20084;-45
2022/12/24 01:05:09;;;;;;;2.65;1.70;;;;;;;15.16;100.00;95817.19;5053930;28;20466;-41
2022/12/24 01:07:40;;;;;;;1.70;1.60;;;;;;;15.18;100.00;95812.50;5054737;28;20074;-46
2022/12/24 01:10:10;;;;;;;2.13;1.60;;;;;;;15.28;100.00;95812.16;5053540;28;20515;-44
2022/12/24 01:12:39;;;;;;;1.73;1.60;;;;;;;15.25;100.00;95825.84;5051797;28;20081;-44
2022/12/24 01:15:08;;;;;;;2.60;1.70;;;;;;;15.09;100.00;95827.72;5055312;28;20622;-49
2022/12/24 01:17:36;;;;;;;1.70;1.60;;;;;;;15.05;100.00;95829.13;5051657;28;20110;-45
2022/12/24 01:20:07;;;;;;;2.10;1.60;;;;;;;14.93;100.00;95834.09;5051588;28;20539;-46
2022/12/24 01:22:35;;;;;;;1.60;1.50;;;;;;;15.16;100.00;95830.47;5053748;28;20363;-45
2022/12/24 01:25:06;;;;;;;1.70;1.60;;;;;;;15.22;100.00;95837.69;5058230;28;20155;-42
2022/12/24 01:27:34;;;;;;;;;;;;;;;15.22;100.00;95842.16;5050919;28;20084;-41
2022/12/24 01:30:02;;;;;;;2.78;1.60;;;;;;;15.29;100.00;95835.91;5052380;28;19960;-44
2022/12/24 01:32:31;;;;;;;1.80;1.70;;;;;;;15.02;100.00;95841.94;5049729;28;20073;-52
2022/12/24 01:34:59;;;;;;;2.13;1.70;;;;;;;15.14;100.00;95840.44;5052763;28;20064;-44
2022/12/24 01:37:28;;;;;;;1.85;1.60;;;;;;;14.92;100.00;95851.03;5055368;28;20083;-46
2022/12/24 01:43:22;;;;;;;2.40;1.70;;;;;;;15.12;100.00;95853.09;5048956;28;20084;-44
2022/12/24 01:45:47;;;;;;;2.03;1.60;;;;;;;14.99;100.00;95866.22;5052294;28;20064;-43
2022/12/24 01:48:40;;;;;;;2.55;1.73;;;;;;;15.05;100.00;95863.63;5054189;28;20076;-43
2022/12/24 01:51:15;;;;;;;2.08;1.70;;;;;;;14.77;100.00;95875.97;5037793;28;20084;-48
2022/12/24 01:53:45;;;;;;;1.95;1.77;;;;;;;15.12;100.00;95869.03;5056571;28;20442;-46
2022/12/24 01:56:13;;;;;;;;;;;;;;;14.81;100.00;95875.41;5051673;28;20084;-47
2022/12/24 01:58:46;;;;;;;1.60;1.48;;;;;;;14.89;100.00;95871.81;5057936;28;20341;-42
2022/12/24 02:01:15;;;;;;;2.00;1.80;;;;;;;14.95;100.00;95882.50;5052912;28;20064;-48
2022/12/24 02:03:44;;;;;;;2.63;2.13;;;;;;;15.14;100.00;95882.91;5052537;28;20504;-43
2022/12/24 02:06:15;;;;;;;2.33;1.70;;;;;;;14.56;100.00;95877.53;5054970;28;20087;-50
2022/12/24 02:08:44;;;;;;;2.67;1.67;;;;;;;14.83;100.00;95876.06;5048229;28;20073;-49
2022/12/24 02:11:14;;;;;;;3.88;1.88;;;;;;;14.84;100.00;95877.69;5052446;28;20080;-46
2022/12/24 02:13:51;;;;;;;2.25;1.75;;;;;;;14.55;100.00;95875.06;5051541;28;20064;-45
2022/12/24 02:16:29;;;;;;;2.22;1.75;;;;;;;15.05;100.00;95884.88;5051860;28;20075;-43
2022/12/24 02:19:05;;;;;;;2.13;1.60;;;;;;;14.60;100.00;95896.56;5052811;28;20099;-45
2022/12/24 02:21:55;;;;;;;1.90;1.80;;;;;;;14.65;100.00;95895.00;5053352;28;20079;-48
2022/12/24 02:25:02;;;;;;;2.28;1.85;;;;;;;14.48;100.00;95890.84;5054130;28;20080;-49
2022/12/24 02:27:44;;;;;;;2.00;1.80;;;;;;;14.60;100.00;95904.53;5028846;28;20112;-45
2022/12/24 02:30:17;;;;;;;2.60;1.90;;;;;;;14.84;100.00;95898.94;5055181;28;20065;-42
2022/12/24 02:32:56;;;;;;;2.72;1.90;;;;;;;14.60;100.00;95897.38;5058116;28;20063;-46
2022/12/24 02:35:30;;;;;;;2.83;2.00;;;;;;;14.93;100.00;95896.97;5048452;28;20072;-44
2022/12/24 02:38:03;;;;;;;4.07;2.33;;;;;;;14.49;100.00;95903.13;5052904;28;20084;-42
2022/12/24 02:40:36;;;;;;;3.97;2.00;;;;;;;14.84;100.00;95906.88;5051456;28;20080;-43
2022/12/24 02:43:10;;;;;;;2.30;1.80;;;;;;;14.93;100.00;95913.75;5049428;28;20104;-50
2022/12/24 02:45:40;;;;;;;4.38;2.10;;;;;;;14.68;100.00;95915.84;5051427;28;20072;-46
2022/12/24 02:48:09;;;;;;;2.22;1.80;;;;;;;14.51;100.00;95917.03;5053174;28;20106;-49
2022/12/24 02:50:38;;;;;;;5.18;1.85;;;;;;;14.93;100.00;95915.56;5053311;28;20072;-43
2022/12/24 02:53:09;;;;;;;1.80;1.70;;;;;;;14.99;100.00;95917.47;5053039;28;20095;-42
2022/12/24 02:55:44;;;;;;;2.00;1.80;;;;;;;14.64;100.00;95927.03;5050343;28;20512;-49
2022/12/24 02:58:25;;;;;;;1.90;1.80;;;;;;;14.84;100.00;95935.28;5051619;28;20083;-44
2022/12/24 03:00:57;;;;;;;;;;;;;;;14.59;100.00;95926.75;5056264;28;20542;-44
2022/12/24 03:03:38;;;;;;;3.13;2.20;;;;;;;14.64;100.00;95937.66;5050451;28;19963;-46
2022/12/24 03:06:14;;;;;;;2.63;2.00;;;;;;;14.77;100.00;95929.88;5053200;28;20069;-43
2022/12/24 03:08:50;;;;;;;1.98;1.73;;;;;;;14.59;100.00;95922.28;5057903;28;20095;-45
2022/12/24 03:11:18;;;;;;;1.98;1.52;;;;;;;14.54;100.00;95915.88;5052482;28;20065;-40
2022/12/24 03:13:48;;;;;;;3.03;1.92;;;;;;;14.78;100.00;95914.75;5059076;28;20080;-41
2022/12/24 03:16:21;;;;;;;2.53;1.90;;;;;;;14.84;100.00;95925.47;5056172;28;20076;-43
2022/12/24 03:18:51;;;;;;;2.88;1.80;;;;;;;15.05;100.00;95918.59;5060387;28;20068;-52
2022/12/24 03:21:24;;;;;;;2.13;1.90;;;;;;;15.25;100.00;95921.47;5051725;28;20076;-41
2022/12/24 03:23:52;;;;;;;2.60;1.77;;;;;;;15.04;100.00;95930.22;5050130;28;20068;-45
2022/12/24 03:26:21;;;;;;;2.58;1.92;;;;;;;15.14;100.00;95928.91;5053074;28;20071;-41
2022/12/24 03:28:49;;;;;;;3.88;1.77;;;;;;;15.16;100.00;95939.34;5057332;28;23474;-39
2022/12/24 03:31:19;;;;;;;3.08;1.80;;;;;;;15.06;100.00;95944.13;5055565;28;20077;-43
2022/12/24 03:33:48;;;;;;;1.70;1.60;;;;;;;15.02;100.00;95945.50;5060972;28;20080;-40
2022/12/24 03:36:17;;;;;;;3.45;2.00;;;;;;;15.05;100.00;95945.97;5054159;28;20525;-47
2022/12/24 03:38:45;;;;;;;2.88;2.00;;;;;;;15.02;100.00;95958.78;5056303;28;20084;-42
2022/12/24 03:41:13;;;;;;;2.35;1.70;;;;;;;15.14;100.00;95955.47;5055888;28;20151;-42
2022/12/24 03:43:42;;;;;;;2.15;1.90;;;;;;;14.80;100.00;95969.31;5060068;28;20081;-45
2022/12/24 03:46:10;;;;;;;2.40;1.70;;;;;;;15.05;100.00;95975.16;5061051;28;20084;-40
2022/12/24 03:48:40;;;;;;;2.97;1.73;;;;;;;14.79;100.00;95966.84;5059867;28;20073;-41
2022/12/24 03:51:17;;;;;;;3.33;1.90;;;;;;;14.88;100.00;95955.94;5053205;28;20073;-49
2022/12/24 03:53:45;;;;;;;3.08;1.80;;;;;;;15.05;100.00;95971.69;5050693;28;20077;-46
2022/12/24 03:56:13;;;;;;;3.10;1.73;;;;;;;15.50;100.00;95954.66;5054357;28;20559;-50
2022/12/24 03:58:41;;;;;;;2.20;1.67;;;;;;;15.10;100.00;95945.41;5051387;28;20079;-45
2022/12/24 04:01:10;;;;;;;2.88;1.83;;;;;;;15.41;100.00;95956.59;5055587;28;20548;-45
2022/12/24 04:03:39;;;;;;;3.08;1.70;;;;;;;15.26;100.00;95968.28;5053467;28;20076;-44
2022/12/24 04:06:09;;;;;;;3.28;1.88;;;;;;;15.09;100.00;95976.44;5057950;28;20084;-43
2022/12/24 04:08:38;;;;;;;2.03;1.70;;;;;;;14.96;100.00;95984.22;5058158;28;20590;-47
2022/12/24 04:11:10;;;;;;;2.13;1.65;;;;;;;14.98;100.00;95968.13;5054092;28;20087;-46
2022/12/24 04:13:38;;;;;;;3.15;1.77;;;;;;;15.25;100.00;95995.84;5055655;28;20080;-50
2022/12/24 04:16:08;;;;;;;2.55;1.70;;;;;;;15.11;100.00;95997.53;5054677;28;20087;-48
2022/12/24 04:18:37;;;;;;;5.45;1.90;;;;;;;15.22;100.00;96005.00;5059226;28;20087;-43
2022/12/24 04:21:07;;;;;;;4.35;2.00;;;;;;;14.96;100.00;96008.13;5051864;28;20596;-43
2022/12/24 04:23:37;;;;;;;2.95;1.88;;;;;;;15.10;100.00;96012.59;5055201;28;20080;-45
2022/12/24 04:26:06;;;;;;;4.60;1.88;;;;;;;14.96;100.00;96010.78;5058261;28;20479;-41
2022/12/24 04:28:35;;;;;;;4.03;1.83;;;;;;;14.99;100.00;96007.75;5057774;28;20087;-52
2022/12/24 04:31:05;;;;;;;2.75;1.92;;;;;;;15.00;100.00;96008.59;5055722;28;20536;-43
2022/12/24 04:33:34;;;;;;;2.30;1.60;;;;;;;14.98;100.00;96010.63;5055246;28;20084;-43
2022/12/24 04:36:04;;;;;;;5.25;2.30;;;;;;;14.97;100.00;96009.78;5050178;28;20088;-46
2022/12/24 04:38:34;;;;;;;3.88;1.80;;;;;;;14.92;100.00;96017.47;5050929;28;20088;-47
2022/12/24 04:41:03;;;;;;;2.60;1.80;;;;;;;14.77;100.00;96019.28;5054807;28;20083;-44
2022/12/24 04:43:32;;;;;;;4.77;2.10;;;;;;;15.05;100.00;96022.97;5057410;28;20083;-43
2022/12/24 04:46:04;;;;;;;3.63;2.03;;;;;;;14.88;100.00;96011.69;5053051;28;20076;-40
2022/12/24 04:48:33;;;;;;;2.30;1.73;;;;;;;15.06;100.00;96019.28;5051857;28;20083;-42
2022/12/24 04:51:02;;;;;;;2.90;1.75;;;;;;;15.08;100.00;96027.09;5064163;28;20103;-38
2022/12/24 04:53:31;;;;;;;2.45;1.83;;;;;;;15.12;100.00;96021.22;5058372;28;20211;-47
2022/12/24 04:56:00;;;;;;;5.95;2.10;;;;;;;15.03;100.00;96026.81;5059348;28;20084;-50
2022/12/24 04:58:29;;;;;;;1.90;1.60;;;;;;;14.99;100.00;96025.53;5066931;28;20076;-46
2022/12/24 05:01:03;;;;;;;2.53;1.85;;;;;;;14.84;100.00;96034.31;5058788;28;20092;-45
2022/12/24 05:03:32;;;;;;;1.70;1.60;;;;;;;14.65;100.00;96046.25;5052106;28;20079;-44
2022/12/24 05:06:04;;;;;;;4.95;1.80;;;;;;;14.90;100.00;96043.38;5056587;28;20085;-45
2022/12/24 05:08:33;;;;;;;2.55;1.60;;;;;;;14.76;100.00;96058.25;5051917;28;20085;-42
2022/12/24 05:11:03;;;;;;;3.03;1.67;;;;;;;14.70;100.00;96051.88;5057777;28;20570;-45
2022/12/24 05:13:31;;;;;;;3.27;1.90;;;;;;;14.85;100.00;96049.22;5055783;28;20080;-46
2022/12/24 05:16:14;;;;;;;2.53;1.73;;;;;;;14.93;100.00;96046.50;5049575;28;21089;-47
2022/12/24 05:18:42;;;;;;;2.40;2.08;;;;;;;15.03;100.00;96042.75;5055354;28;20088;-48
2022/12/24 05:21:11;;;;;;;3.28;1.95;;;;;;;14.94;100.00;96042.00;5058522;28;20525;-44
2022/12/24 05:26:31;;;;;;;3.25;2.00;;;;;;;15.13;100.00;96057.38;5056162;28;20087;-48
2022/12/24 05:29:01;;;;;;;2.88;1.83;;;;;;;15.61;100.00;96070.28;5053361;28;20083;-45
2022/12/24 05:31:32;;;;;;;5.07;2.20;;;;;;;15.87;100.00;96064.50;5051936;28;20064;-49
2022/12/24 05:34:00;;;;;;;4.65;2.30;;;;;;;15.57;100.00;96061.03;5049666;28;20504;-46
2022/12/24 05:36:29;;;;;;;5.10;2.10;;;;;;;15.59;100.00;96061.69;5053163;28;20472;-42
2022/12/24 05:38:57;;;;;;;3.13;2.17;;;;;;;15.54;100.00;96062.22;5048249;28;20075;-42
2022/12/24 05:41:26;;;;;;;3.40;2.10;;;;;;;15.39;100.00;96074.72;5054125;28;20076;-47
2022/12/24 05:43:55;;;;;;;2.63;1.92;;;;;;;14.97;100.00;96068.22;5057161;28;20064;-45
2022/12/24 05:46:24;;;;;;;2.38;2.10;;;;;;;15.13;100.00;96086.59;5061775;28;20075;-43
2022/12/24 05:48:53;;;;;;;4.47;2.13;;;;;;;14.99;100.00;96090.06;5055855;28;20076;-46
2022/12/24 05:51:22;;;;;;;4.90;2.00;;;;;;;15.22;100.00;96081.22;5056277;28;20535;-50
2022/12/24 05:53:51;;;;;;;3.72;1.98;;;;;;;15.02;100.00;96095.03;5054627;28;20110;-51
2022/12/24 05:56:21;;;;;;;4.82;2.20;;;;;;;15.41;100.00;96115.19;5049327;28;20084;-47
2022/12/24 05:58:50;;;;;;;3.05;1.70;;;;;;;15.31;100.00;96133.25;5052770;28;20083;-49
2022/12/24 06:01:21;;;;;;;2.10;2.00;;;;;;;15.27;100.00;96113.38;5056085;28;20060;-48
2022/12/24 06:03:50;;;;;;;2.83;1.80;;;;;;;14.80;100.00;96130.44;5051336;28;20114;-47
2022/12/24 06:06:21;;;;;;;3.17;2.15;;;;;;;13.90;100.00;96146.88;5052341;28;20083;-47
2022/12/24 06:08:49;;;;;;;;;;;;;;;13.74;100.00;96132.72;5057092;28;20086;-49
2022/12/24 06:11:19;;;;;;;3.55;2.10;;;;;;;13.40;100.00;96140.13;5053777;28;19959;-48
2022/12/24 06:13:48;;;;;;;2.70;1.92;;;;;;;12.85;100.00;96133.72;5049063;28;20480;-47
2022/12/24 06:16:18;;;;;;;2.00;1.90;;;;;;;12.67;100.00;96125.97;5051687;28;20546;-51
2022/12/24 06:18:48;;;;;;;4.75;2.10;;;;;;;12.77;100.00;96134.56;5057672;28;20073;-45
2022/12/24 06:21:16;;;;;;;3.38;2.10;;;;;;;12.76;100.00;96129.44;5050330;28;21147;-47
2022/12/24 06:23:45;;;;;;;2.97;1.90;;;;;;;12.94;100.00;96140.69;5046112;28;20083;-48
2022/12/24 06:26:16;;;;;;;5.55;2.50;;;;;;;13.04;100.00;96135.19;5053973;28;20087;-41
2022/12/24 06:28:45;;;;;;;5.45;2.53;;;;;;;12.98;100.00;96135.88;5054524;28;20073;-47
2022/12/24 06:31:15;;;;;;;2.80;2.25;;;;;;;13.15;100.00;96136.69;5051693;28;20071;-45
2022/12/24 06:33:44;;;;;;;3.65;2.47;;;;;;;13.11;100.00;96132.69;5050524;28;20072;-47
2022/12/24 06:36:17;;;;;;;3.97;2.50;;;;;;;13.18;100.00;96129.22;5049837;28;20516;-51
2022/12/24 06:38:45;;;;;;;3.40;2.22;;;;;;;13.31;100.00;96128.72;5050903;28;20100;-50
2022/12/24 06:41:15;;;;;;;5.88;2.78;;;;;;;13.47;100.00;96141.91;5047660;28;20071;-46
2022/12/24 06:43:44;;;;;;;3.50;2.13;;;;;;;13.37;100.00;96135.97;5050843;28;20057;-51
2022/12/24 06:46:13;;;;;;;4.03;2.63;;;;;;;13.44;100.00;96136.94;5052724;28;20072;-49
2022/12/24 06:48:43;;;;;;;6.50;2.60;;;;;;;13.58;100.00;96146.00;5051041;28;20080;-51
2022/12/24 06:51:11;;;;;;;4.65;2.10;;;;;;;13.58;100.00;96155.78;5055841;28;20510;-47
2022/12/24 06:53:41;;;;;;;3.47;2.25;;;;;;;13.54;100.00;96148.19;5055070;28;20060;-48
2022/12/24 06:56:11;;;;;;;6.53;2.30;;;;;;;13.57;100.00;96147.03;5057651;28;20087;-46
2022/12/24 06:58:40;;;;;;;4.05;2.50;;;;;;;13.57;100.00;96160.25;5053777;28;20081;-52
2022/12/24 07:01:11;;;;;;;3.22;2.45;;;;;;;13.66;100.00;96156.59;5052493;28;20068;-51
2022/12/24 07:03:39;;;;;;;;;;;;;;;13.58;100.00;96161.91;5053583;28;20083;-53
2022/12/24 07:06:11;;;;;;;5.03;2.13;;;;;;;13.52;100.00;96159.94;5052523;28;19964;-51
2022/12/24 07:08:41;;;;;;;2.55;2.35;;;;;;;13.93;100.00;96162.44;5050313;28;20088;-52
2022/12/24 07:11:09;;;;;;;5.13;2.40;;;;;;;13.74;100.00;96161.84;5052288;28;20514;-49
2022/12/24 07:13:37;;;;;;;4.38;2.30;;;;;;;13.97;100.00;96174.34;5052624;28;20072;-53
2022/12/24 07:16:06;;;;;;;4.13;2.70;;;;;;;13.88;100.00;96170.91;5055251;28;20122;-52
2022/12/24 07:18:35;;;;;;;3.63;2.25;;;;;;;13.94;100.00;96177.38;5053510;28;20508;-51
2022/12/24 07:21:04;;;;;;;4.53;2.38;;;;;;;13.98;100.00;96184.78;5047721;28;20084;-52
2022/12/24 07:23:33;;;;;;;3.35;2.42;;;;;;;13.92;100.00;96184.66;5052066;28;20069;-54
2022/12/24 07:26:04;;;;;;;2.75;2.40;;;;;;;13.86;100.00;96188.81;5055070;28;20080;-52
2022/12/24 07:28:32;;;;;;;3.50;2.38;;;;;;;14.38;100.00;96187.38;5053541;28;20079;-54
2022/12/24 07:31:00;;;;;;;5.13;2.70;;;;;;;14.63;100.00;96190.78;5051511;28;20079;-50
2022/12/24 07:33:30;;;;;;;6.80;2.47;;;;;;;14.28;100.00;96200.03;5050558;28;20525;-49
2022/12/24 07:36:00;;;;;;;6.35;2.58;;;;;;;14.35;100.00;96195.69;5052165;28;20056;-53
2022/12/24 07:38:29;;;;;;;7.70;2.70;;;;;;;14.53;100.00;96203.44;5052456;28;20082;-56
2022/12/24 07:40:57;;;;;;;5.45;2.40;;;;;;;14.48;100.00;96204.72;5053143;28;20091;-55
2022/12/24 07:43:27;;;;;;;7.13;2.60;;;;;;;14.13;100.00;96207.91;5048700;28;20076;-54
2022/12/24 07:45:56;;;;;;;5.40;2.33;;;;;;;14.48;100.00;96207.38;5047321;28;20065;-52
2022/12/24 07:48:26;;;;;;;4.28;2.40;;;;;;;14.39;100.00;96219.06;5050737;28;20079;-53
2022/12/24 07:50:55;;;;;;;3.40;2.40;;;;;;;14.73;100.00;96220.56;5051300;28;20083;-53
2022/12/24 07:53:24;;;;;;;4.82;2.50;;;;;;;14.72;100.00;96217.06;5052040;28;20064;-53
2022/12/24 07:55:53;;;;;;;5.80;2.70;;;;;;;14.75;100.00;96218.53;5048850;28;20195;-54
2022/12/24 07:58:22;;;;;;;4.43;2.50;;;;;;;14.48;100.00;96233.91;5058293;28;20526;-47
2022/12/24 08:00:57;;;;;;;3.85;2.30;;;;;;;14.66;100.00;96231.06;5058360;28;20080;-55
2022/12/24 08:03:25;;;;;;;7.45;2.30;;;;;;;14.12;100.00;96236.25;5059240;28;20087;-48
2022/12/24 08:05:54;;;;;;;5.07;2.20;;;;;;;14.17;100.00;96235.75;5058982;28;20563;-49
2022/12/24 08:08:22;;;;;;;3.22;2.10;;;;;;;14.73;100.00;96236.47;5056928;28;20077;-54
2022/12/24 08:10:51;;;;;;;3.20;2.05;;;;;;;14.94;100.00;96252.59;5055151;28;20084;-51
2022/12/24 08:13:19;;;;;;;3.20;2.10;;;;;;;14.79;100.00;96246.38;5057304;28;20080;-50
2022/12/24 08:15:47;;;;;;;2.70;1.73;;;;;;;15.00;100.00;96250.22;5053920;28;20084;-53
2022/12/24 08:18:17;;;;;;;6.72;1.92;;;;;;;14.95;100.00;96261.38;5051837;28;20186;-51
2022/12/24 08:20:45;;;;;;;3.40;1.88;;;;;;;15.01;100.00;96250.06;5060120;28;20143;-58
2022/12/24 08:23:14;;;;;;;2.97;1.85;;;;;;;14.83;100.00;96244.19;5058723;28;20088;-55
2022/12/24 08:25:43;;;;;;;4.40;1.80;;;;;;;15.22;100.00;96256.53;5059223;28;20076;-49
2022/12/24 08:28:11;;;;;;;3.00;1.80;;;;;;;15.12;100.00;96260.25;5060977;28;20499;-48
2022/12/24 08:30:40;;;;;;;3.13;2.10;;;;;;;14.69;100.00;96261.69;5055278;28;20081;-55
2022/12/24 08:33:08;;;;;;;3.72;2.20;;;;;;;15.32;100.00;96279.19;5055803;28;20079;-56
2022/12/24 08:35:38;;;;;;;4.32;2.67;;;;;;;14.93;100.00;96274.84;5054415;28;20564;-49
2022/12/24 08:38:06;;;;;;;5.80;3.10;;;;;;;14.62;100.00;96280.16;5058635;28;20092;-54
2022/12/24 08:40:35;;;;;;;4.72;2.60;;;;;;;14.83;100.00;96282.22;5056078;28;20480;-50
2022/12/24 08:43:04;;;;;;;6.82;4.10;;;;;;;15.06;100.00;96271.59;5053850;28;20091;-53
2022/12/24 08:45:32;;;;;;;3.22;2.40;;;;;;;14.80;100.00;96274.59;5050761;28;20084;-52
2022/12/24 08:48:08;;;;;;;3.05;2.20;;;;;;;14.85;100.00;96269.56;5055093;28;20088;-51
2022/12/24 08:50:39;;;;;;;2.63;2.03;;;;;;;15.34;100.00;96273.69;5057837;28;20095;-49
2022/12/24 08:53:07;;;;;;;2.47;1.92;;;;;;;15.04;100.00;96267.47;5055441;28;20080;-51
2022/12/24 08:55:36;;;;;;;3.20;1.80;;;;;;;14.89;100.00;96293.94;5057272;28;20077;-55
2022/12/24 08:58:04;;;;;;;2.75;1.70;;;;;;;14.45;100.00;96292.66;5057683;28;20595;-52
2022/12/24 09:00:32;;;;;;;3.95;1.90;;;;;;;15.37;100.00;96302.56;5058358;28;20131;-48
2022/12/24 09:03:01;;;;;;;3.28;2.05;;;;;;;14.72;100.00;96307.28;5052122;28;20081;-54
2022/12/24 09:05:30;;;;;;;2.95;1.60;;;;;;;14.86;100.00;96310.22;5061266;28;20492;-49
2022/12/24 09:08:00;;;;;;;4.00;1.90;;;;;;;14.57;100.00;96310.88;5054563;28;20080;-51
2022/12/24 09:10:28;;;;;;;2.00;1.77;;;;;;;14.97;100.00;96317.81;5053046;28;20095;-50
2022/12/24 09:12:56;;;;;;;2.67;1.95;;;;;;;15.07;100.00;96320.22;5057181;28;20076;-53
2022/12/24 09:15:25;;;;;;;2.75;1.60;;;;;;;14.79;100.00;96311.91;5060600;28;22310;-49
2022/12/24 09:17:53;;;;;;;3.17;1.70;;;;;;;14.89;100.00;96317.84;5058775;28;20083;-52
2022/12/24 09:20:22;;;;;;;4.00;1.83;;;;;;;14.81;100.00;96316.06;5052880;28;20469;-49
2022/12/24 09:22:50;;;;;;;2.72;1.70;;;;;;;15.14;100.00;96337.94;5049160;28;20088;-53
2022/12/24 09:25:20;;;;;;;3.72;1.70;;;;;;;15.02;100.00;96331.38;5059086;28;20064;-51
2022/12/24 09:27:48;;;;;;;2.30;1.80;;;;;;;15.15;100.00;96336.94;5052684;28;20096;-46
2022/12/24 09:30:16;;;;;;;2.30;1.90;;;;;;;14.87;100.00;96327.81;5054947;28;20060;-46
2022/12/24 09:32:45;;;;;;;2.15;1.60;;;;;;;15.01;100.00;96331.56;5054977;28;20106;-53
2022/12/24 09:35:13;;;;;;;2.15;1.50;;;;;;;14.58;100.00;96342.53;5056020;28;20072;-48
2022/12/24 09:37:42;;;;;;;1.73;1.58;;;;;;;14.85;100.00;96335.94;5056410;28;20067;-52
2022/12/24 09:40:21;;;;;;;4.22;1.60;;;;;;;14.44;100.00;96336.09;5052024;28;20472;-51
2022/12/24 09:42:52;;;;;;;2.28;1.55;;;;;;;14.87;100.00;96335.78;5055314;28;20086;-51
2022/12/24 09:45:24;;;;;;;1.80;1.70;;;;;;;14.89;100.00;96339.06;5060331;28;20075;-51
2022/12/24 09:47:55;;;;;;;2.72;1.73;;;;;;;15.13;100.00;96332.78;5050631;28;20087;-52
2022/12/24 09:50:33;;;;;;;2.45;1.67;;;;;;;14.46;100.00;96347.38;5053423;28;20083;-55
2022/12/24 09:53:04;;;;;;;3.90;1.80;;;;;;;14.77;100.00;96330.69;5057196;28;20114;-53
2022/12/24 09:55:45;;;;;;;2.47;1.55;;;;;;;14.40;100.00;96329.47;5052814;28;20076;-51
2022/12/24 09:58:22;;;;;;;3.88;1.75;;;;;;;14.70;100.00;96343.00;5056322;28;20073;-55
2022/12/24 10:00:51;;;;;;;2.50;1.65;;;;;;;14.73;100.00;96340.00;5053173;28;20064;-53
2022/12/24 10:03:19;;;;;;;2.17;1.80;;;;;;;14.81;100.00;96339.94;5056819;28;20103;-53
2022/12/24 10:05:57;;;;;;;3.88;1.65;;;;;;;14.87;100.00;96330.47;5047121;28;20089;-49
2022/12/24 10:08:31;;;;;;;2.20;1.73;;;;;;;15.14;100.00;96345.91;5057717;28;20064;-47
2022/12/24 10:11:08;;;;;;;2.88;1.88;;;;;;;14.74;100.00;96338.16;5055657;28;20084;-52
2022/12/24 10:13:48;;;;;;;1.70;1.60;;;;;;;15.00;100.00;96338.66;5050030;28;20064;-46
2022/12/24 10:16:18;;;;;;;;;;;;;;;14.63;100.00;96334.06;5059431;28;20072;-51
2022/12/24 10:18:52;;;;;;;3.58;1.70;;;;;;;14.69;100.00;96333.38;5057944;28;19967;-48
2022/12/24 10:21:29;;;;;;;2.58;1.77;;;;;;;15.26;100.00;96340.19;5053939;28;20075;-53
2022/12/24 10:24:00;;;;;;;2.72;2.00;;;;;;;14.98;100.00;96343.34;5052443;28;20099;-52
2022/12/24 10:26:33;;;;;;;3.38;1.77;;;;;;;15.04;100.00;96347.16;5053267;28;20488;-54
2022/12/24 10:29:07;;;;;;;2.03;1.70;;;;;;;14.90;100.00;96356.66;5056296;28;20128;-48
2022/12/24 10:31:40;;;;;;;1.75;1.60;;;;;;;14.96;100.00;96356.78;5057585;28;20071;-52
2022/12/24 10:34:13;;;;;;;1.80;1.63;;;;;;;15.57;100.00;96364.84;5057307;28;20546;-48
2022/12/24 10:36:42;;;;;;;2.13;1.50;;;;;;;15.64;100.00;96371.13;5048112;28;20072;-56
2022/12/24 10:39:15;;;;;;;2.47;1.80;;;;;;;15.89;100.00;96360.31;5054936;28;20072;-51
2022/12/24 10:41:45;;;;;;;4.53;2.20;;;;;;;15.78;100.00;96356.25;5050190;28;20095;-52
2022/12/24 10:44:16;;;;;;;2.78;1.65;;;;;;;15.50;100.00;96365.75;5050145;28;20081;-50
2022/12/24 10:46:46;;;;;;;2.10;1.70;;;;;;;15.34;100.00;96354.22;5047696;28;20092;-51
2022/12/24 10:49:17;;;;;;;2.58;1.70;;;;;;;15.09;100.00;96355.41;5052846;28;20087;-51
2022/12/24 10:51:48;;;;;;;4.10;1.70;;;;;;;15.06;100.00;96351.25;5050782;28;20083;-48
2022/12/24 10:54:17;;;;;;;4.40;1.90;;;;;;;15.68;100.00;96357.50;5047134;28;20092;-54
2022/12/24 10:56:58;;;;;;;2.30;1.88;;;;;;;15.28;100.00;96362.94;5056653;28;20072;-53
2022/12/24 10:59:29;;;;;;;2.20;1.60;;;;;;;15.02;100.00;96355.28;5056846;28;20084;-52
2022/12/24 11:01:59;;;;;;;4.13;1.80;;;;;;;15.17;100.00;96356.19;5054551;28;20088;-53
2022/12/24 11:04:29;;;;;;;3.42;1.83;;;;;;;15.07;100.00;96363.56;5055215;28;20082;-54
2022/12/24 11:07:00;;;;;;;5.07;1.70;;;;;;;15.27;100.00;96366.56;5057358;28;20076;-50
2022/12/24 11:09:29;;;;;;;2.28;1.80;;;;;;;15.65;100.00;96362.13;5055505;28;20548;-49
2022/12/24 11:12:00;;;;;;;3.58;1.90;;;;;;;15.20;100.00;96361.13;5059817;28;20099;-53
2022/12/24 11:14:38;;;;;;;2.22;1.80;;;;;;;15.74;100.00;96357.63;5052757;28;20836;-48
2022/12/24 11:17:06;;;;;;;1.75;1.60;;;;;;;15.05;100.00;96356.75;5051563;28;20084;-48
2022/12/24 11:19:37;;;;;;;4.90;1.92;;;;;;;14.95;100.00;96346.34;5054465;28;20081;-48
2022/12/24 11:22:07;;;;;;;2.45;1.70;;;;;;;15.27;100.00;96363.09;5050207;28;20087;-51
2022/12/24 11:24:38;;;;;;;3.63;1.92;;;;;;;15.10;100.00;96359.69;5045779;28;20559;-52
2022/12/24 11:27:34;;;;;;;3.55;1.90;;;;;;;14.93;100.00;96335.06;5051217;28;20089;-48
2022/12/24 11:30:28;;;;;;;5.35;2.17;;;;;;;14.92;100.00;96352.00;5043425;28;20643;-52
2022/12/24 11:33:16;;;;;;;2.88;1.60;;;;;;;15.32;100.00;96356.25;5040718;28;20083;-52
2022/12/24 11:35:48;;;;;;;1.60;1.48;;;;;;;15.33;100.00;96347.25;5056333;28;20087;-51
2022/12/24 11:38:20;;;;;;;2.25;1.60;;;;;;;15.72;100.00;96350.81;5050149;28;20128;-56
2022/12/24 11:40:51;;;;;;;6.82;2.10;;;;;;;15.51;100.00;96349.63;5057448;28;20080;-48
2022/12/24 11:43:21;;;;;;;3.58;2.03;;;;;;;15.03;100.00;96346.28;5050210;28;20063;-50
2022/12/24 11:45:50;;;;;;;;;;;;;;;15.01;100.00;96352.81;5052437;28;20088;-48
2022/12/24 11:48:29;;;;;;;7.00;1.92;;;;;;;15.37;100.00;96355.72;5055000;28;19960;-48